createdAt,value
2017-01-08T00:01:01.921Z,84.39
2017-01-08T00:02:11.369Z,84.58
2017-01-08T00:03:21.870Z,84.39
2017-01-08T00:04:31.239Z,84.2
2017-01-08T00:05:40.219Z,84.29
2017-01-08T00:06:49.204Z,84.58
2017-01-08T00:07:58.189Z,84.39
2017-01-08T00:09:07.206Z,84.58
2017-01-08T00:10:16.188Z,84.39
2017-01-08T00:11:25.186Z,84.39
2017-01-08T00:12:34.163Z,84.39
2017-01-08T00:13:43.145Z,83.72
2017-01-08T00:14:52.225Z,83.91
2017-01-08T00:16:01.359Z,84.29
2017-01-08T00:17:10.342Z,84.58
2017-01-08T00:18:19.321Z,84.86
2017-01-08T00:19:28.300Z,84.67
2017-01-08T00:20:37.280Z,84.67
2017-01-08T00:21:46.317Z,84.77
2017-01-08T00:22:55.420Z,84.29
2017-01-08T00:24:04.403Z,84.39
2017-01-08T00:25:13.379Z,84.77
2017-01-08T00:26:23.180Z,84.86
2017-01-08T00:27:33.165Z,84.77
2017-01-08T00:28:42.146Z,85.05
2017-01-08T00:29:51.493Z,85.05
2017-01-08T00:31:01.145Z,85.24
2017-01-08T00:32:11.082Z,85.05
2017-01-08T00:33:20.389Z,85.05
2017-01-08T00:34:32.031Z,84.95
2017-01-08T00:35:44.214Z,85.24
2017-01-08T00:36:55.002Z,85.14
2017-01-08T00:38:05.719Z,84.95
2017-01-08T00:39:15.344Z,84.77
2017-01-08T00:40:24.327Z,84.77
2017-01-08T00:41:34.082Z,84.77
2017-01-08T00:42:43.741Z,84.48
2017-01-08T00:43:53.719Z,84.77
2017-01-08T00:45:03.267Z,84.39
2017-01-08T00:46:13.234Z,85.14
2017-01-08T00:47:23.471Z,84.77
2017-01-08T00:48:33.010Z,84.95
2017-01-08T00:49:42.000Z,85.05
2017-01-08T00:50:50.979Z,84.95
2017-01-08T00:52:00.407Z,85.05
2017-01-08T00:53:10.510Z,84.95
2017-01-08T00:54:20.842Z,85.05
2017-01-08T00:55:30.530Z,85.14
2017-01-08T00:56:40.603Z,84.95
2017-01-08T00:57:49.919Z,85.8
2017-01-08T00:58:59.880Z,85.9
2017-01-08T01:00:09.473Z,85.9
2017-01-08T01:01:18.628Z,85.71
2017-01-08T01:02:28.205Z,85.8
2017-01-08T01:03:37.186Z,85.8
2017-01-08T01:04:46.163Z,85.8
2017-01-08T01:05:55.146Z,85.61
2017-01-08T01:07:04.128Z,85.42
2017-01-08T01:08:13.113Z,85.8
2017-01-08T01:09:22.091Z,85.52
2017-01-08T01:10:31.431Z,85.52
2017-01-08T01:11:40.414Z,85.9
2017-01-08T01:12:49.513Z,85.61
2017-01-08T01:13:59.707Z,85.99
2017-01-08T01:15:08.859Z,85.05
2017-01-08T01:16:17.983Z,84.86
2017-01-08T01:17:27.013Z,85.14
2017-01-08T01:18:36.893Z,85.52
2017-01-08T01:19:45.882Z,85.71
2017-01-08T01:20:55.741Z,85.8
2017-01-08T01:22:05.901Z,85.8
2017-01-08T01:23:17.689Z,85.9
2017-01-08T01:24:26.884Z,85.61
2017-01-08T01:25:36.128Z,85.52
2017-01-08T01:26:45.918Z,85.61
2017-01-08T01:27:55.574Z,85.42
2017-01-08T01:29:05.102Z,85.52
2017-01-08T01:30:14.318Z,85.52
2017-01-08T01:31:23.366Z,85.61
2017-01-08T01:32:32.640Z,85.71
2017-01-08T01:33:41.809Z,85.9
2017-01-08T01:34:51.013Z,85.71
2017-01-08T01:36:00.043Z,85.9
2017-01-08T01:37:10.424Z,85.9
2017-01-08T01:38:19.415Z,85.8
2017-01-08T01:39:28.394Z,85.9
2017-01-08T01:40:38.260Z,85.8
2017-01-08T01:41:47.282Z,86.37
2017-01-08T01:42:56.262Z,86.37
2017-01-08T01:44:05.248Z,86.28
2017-01-08T01:45:14.233Z,86.37
2017-01-08T01:46:23.216Z,86.37
2017-01-08T01:47:32.196Z,85.9
2017-01-08T01:48:41.177Z,86.22
2017-01-08T01:49:50.161Z,86.18
2017-01-08T01:50:59.143Z,86.41
2017-01-08T01:52:08.126Z,85.57
2017-01-08T01:53:17.119Z,85.85
2017-01-08T01:54:26.097Z,86.56
2017-01-08T01:55:35.078Z,86.09
2017-01-08T01:56:44.062Z,85.71
2017-01-08T01:57:53.042Z,85.8
2017-01-08T01:59:02.019Z,86.22
2017-01-08T02:00:11.000Z,86.18
2017-01-08T02:01:19.981Z,86.04
2017-01-08T02:02:28.983Z,86.51
2017-01-08T02:03:37.965Z,86.22
2017-01-08T02:04:46.946Z,86.13
2017-01-08T02:05:55.969Z,86.51
2017-01-08T02:07:04.952Z,86.04
2017-01-08T02:08:13.931Z,86.04
2017-01-08T02:09:23.526Z,86.51
2017-01-08T02:10:32.572Z,86.41
2017-01-08T02:11:41.947Z,86.32
2017-01-08T02:12:51.798Z,86.41
2017-01-08T02:14:00.779Z,85.94
2017-01-08T02:15:09.760Z,86.32
2017-01-08T02:16:18.739Z,86.41
2017-01-08T02:17:27.726Z,86.51
2017-01-08T02:18:37.310Z,86.51
2017-01-08T02:19:46.290Z,85.94
2017-01-08T02:20:55.269Z,85.85
2017-01-08T02:22:04.945Z,85.94
2017-01-08T02:23:15.357Z,85.66
2017-01-08T02:24:25.229Z,85.85
2017-01-08T02:25:35.439Z,86.04
2017-01-08T02:26:44.422Z,85.66
2017-01-08T02:27:53.408Z,86.22
2017-01-08T02:29:03.285Z,86.04
2017-01-08T02:30:13.256Z,85.85
2017-01-08T02:31:23.557Z,86.22
2017-01-08T02:32:32.881Z,86.04
2017-01-08T02:33:42.182Z,86.41
2017-01-08T02:34:52.323Z,86.51
2017-01-08T02:36:02.626Z,86.32
2017-01-08T02:37:12.704Z,86.32
2017-01-08T02:38:23.591Z,86.41
2017-01-08T02:39:35.259Z,86.51
2017-01-08T02:40:44.913Z,86.6
2017-01-08T02:41:54.544Z,86.13
2017-01-08T02:43:03.529Z,86.51
2017-01-08T02:44:12.512Z,85.85
2017-01-08T02:45:23.248Z,86.22
2017-01-08T02:46:33.377Z,86.13
2017-01-08T02:47:43.574Z,86.32
2017-01-08T02:48:54.515Z,86.79
2017-01-08T02:50:04.443Z,86.7
2017-01-08T02:51:14.997Z,86.6
2017-01-08T02:52:25.212Z,86.6
2017-01-08T02:53:34.762Z,85.94
2017-01-08T02:54:46.123Z,86.04
2017-01-08T02:55:55.874Z,85.52
2017-01-08T02:57:07.749Z,85.66
2017-01-08T02:58:19.636Z,86.09
2017-01-08T02:59:29.180Z,85.61
2017-01-08T03:00:41.356Z,86.37
2017-01-08T03:01:53.407Z,86.75
2017-01-08T03:03:02.792Z,86.47
2017-01-08T03:04:14.795Z,86.37
2017-01-08T03:05:25.899Z,85.99
2017-01-08T03:06:34.886Z,85.9
2017-01-08T03:07:45.114Z,85.71
2017-01-08T03:08:55.142Z,85.8
2017-01-08T03:10:07.174Z,86.18
2017-01-08T03:11:19.330Z,86.37
2017-01-08T03:12:28.686Z,86.56
2017-01-08T03:13:40.445Z,85.8
2017-01-08T03:14:52.382Z,86.37
2017-01-08T03:16:02.197Z,86.37
2017-01-08T03:17:14.312Z,86.56
2017-01-08T03:18:26.324Z,86.94
2017-01-08T03:19:35.887Z,87.04
2017-01-08T03:20:48.014Z,87.6
2017-01-08T03:21:59.937Z,87.88
2017-01-08T03:23:09.366Z,88.07
2017-01-08T03:24:21.314Z,87.6
2017-01-08T03:25:33.568Z,87.88
2017-01-08T03:26:42.813Z,88.31
2017-01-08T03:27:54.823Z,87.65
2017-01-08T03:29:07.307Z,87.79
2017-01-08T03:30:16.437Z,87.46
2017-01-08T03:31:28.439Z,87.51
2017-01-08T03:32:40.438Z,88.12
2017-01-08T03:33:50.052Z,87.65
2017-01-08T03:35:03.113Z,87.74
2017-01-08T03:36:16.045Z,87.65
2017-01-08T03:37:26.424Z,88.02
2017-01-08T03:38:38.709Z,87.17
2017-01-08T03:39:48.494Z,87.08
2017-01-08T03:40:57.474Z,86.94
2017-01-08T03:42:09.606Z,87.08
2017-01-08T03:43:18.594Z,87.6
2017-01-08T03:44:29.913Z,87.23
2017-01-08T03:45:41.661Z,87.79
2017-01-08T03:46:56.211Z,87.84
2017-01-08T03:48:05.192Z,87.65
2017-01-08T03:49:14.175Z,87.74
2017-01-08T03:50:28.074Z,88.12
2017-01-08T03:51:42.564Z,87.7
2017-01-08T03:52:58.068Z,87.55
2017-01-08T03:54:11.076Z,88.02
2017-01-08T03:55:23.191Z,87.93
2017-01-08T03:56:34.859Z,88.02
2017-01-08T03:57:48.194Z,88.31
2017-01-08T03:59:01.360Z,87.74
2017-01-08T04:00:11.505Z,87.84
2017-01-08T04:01:25.638Z,87.46
2017-01-08T04:02:38.047Z,87.84
2017-01-08T04:03:51.313Z,87.6
2017-01-08T04:05:02.989Z,88.31
2017-01-08T04:06:11.972Z,87.6
2017-01-08T04:07:20.955Z,87.7
2017-01-08T04:08:29.948Z,87.55
2017-01-08T04:09:38.931Z,87.93
2017-01-08T04:10:47.910Z,88.07
2017-01-08T04:11:56.919Z,88.45
2017-01-08T04:13:05.900Z,87.88
2017-01-08T04:14:14.928Z,88.12
2017-01-08T04:15:23.915Z,87.98
2017-01-08T04:16:32.893Z,87.6
2017-01-08T04:17:41.873Z,88.31
2017-01-08T04:18:50.859Z,88.21
2017-01-08T04:19:59.844Z,88.4
2017-01-08T04:21:08.832Z,88.21
2017-01-08T04:22:17.814Z,87.74
2017-01-08T04:23:26.789Z,87.79
2017-01-08T04:24:35.774Z,87.88
2017-01-08T04:25:44.778Z,87.41
2017-01-08T04:26:53.757Z,87.23
2017-01-08T04:28:02.741Z,87.04
2017-01-08T04:29:11.729Z,87.6
2017-01-08T04:30:20.715Z,87.7
2017-01-08T04:31:29.696Z,87.79
2017-01-08T04:32:38.679Z,87.98
2017-01-08T04:33:47.660Z,87.98
2017-01-08T04:34:56.640Z,87.79
2017-01-08T04:36:05.621Z,88.17
2017-01-08T04:37:14.607Z,87.7
2017-01-08T04:38:23.590Z,88.55
2017-01-08T04:39:32.577Z,88.45
2017-01-08T04:40:41.558Z,88.26
2017-01-08T04:41:50.537Z,88.17
2017-01-08T04:42:59.522Z,87.7
2017-01-08T04:44:08.509Z,88.17
2017-01-08T04:45:17.490Z,88.93
2017-01-08T04:46:26.473Z,88.64
2017-01-08T04:47:35.454Z,88.36
2017-01-08T04:48:44.440Z,88.83
2017-01-08T04:49:53.418Z,88.68
2017-01-08T04:51:02.397Z,88.97
2017-01-08T04:52:11.376Z,89.06
2017-01-08T04:53:20.354Z,89.06
2017-01-08T04:54:29.342Z,89.16
2017-01-08T04:55:38.346Z,89.06
2017-01-08T04:56:47.331Z,89.25
2017-01-08T04:57:56.310Z,89.06
2017-01-08T04:59:05.291Z,89.16
2017-01-08T05:00:14.276Z,89.06
2017-01-08T05:01:23.256Z,89.06
2017-01-08T05:02:32.238Z,88.68
2017-01-08T05:03:41.223Z,88.4
2017-01-08T05:04:50.200Z,88.21
2017-01-08T05:05:59.179Z,88.49
2017-01-08T05:07:08.160Z,88.59
2017-01-08T05:08:17.161Z,88.4
2017-01-08T05:09:26.152Z,87.84
2017-01-08T05:10:35.136Z,88.4
2017-01-08T05:11:44.123Z,88.31
2017-01-08T05:12:53.100Z,88.31
2017-01-08T05:14:02.104Z,88.02
2017-01-08T05:15:11.101Z,87.65
2017-01-08T05:16:20.079Z,88.12
2017-01-08T05:17:29.061Z,88.12
2017-01-08T05:18:38.042Z,87.65
2017-01-08T05:19:47.019Z,87.93
2017-01-08T05:20:56.008Z,87.84
2017-01-08T05:22:04.990Z,88.31
2017-01-08T05:23:13.976Z,88.21
2017-01-08T05:24:22.958Z,88.21
2017-01-08T05:25:31.935Z,88.26
2017-01-08T05:26:40.924Z,87.88
2017-01-08T05:27:49.909Z,87.7
2017-01-08T05:28:58.888Z,87.51
2017-01-08T05:30:07.866Z,87.6
2017-01-08T05:31:16.849Z,88.07
2017-01-08T05:32:25.830Z,88.07
2017-01-08T05:33:34.809Z,88.36
2017-01-08T05:34:43.793Z,88.45
2017-01-08T05:35:52.777Z,88.26
2017-01-08T05:37:01.762Z,88.36
2017-01-08T05:38:10.746Z,88.83
2017-01-08T05:39:19.724Z,88.36
2017-01-08T05:40:28.706Z,87.98
2017-01-08T05:41:37.686Z,88.36
2017-01-08T05:42:46.668Z,88.64
2017-01-08T05:43:55.653Z,88.45
2017-01-08T05:45:04.641Z,88.26
2017-01-08T05:46:13.619Z,88.36
2017-01-08T05:47:22.602Z,87.88
2017-01-08T05:48:31.582Z,88.07
2017-01-08T05:49:40.562Z,88.64
2017-01-08T05:50:49.546Z,88.55
2017-01-08T05:51:58.524Z,89.02
2017-01-08T05:53:07.505Z,89.31
2017-01-08T05:54:16.488Z,88.83
2017-01-08T05:55:25.470Z,89.12
2017-01-08T05:56:34.452Z,88.93
2017-01-08T05:57:43.436Z,88.74
2017-01-08T05:58:52.414Z,88.55
2017-01-08T06:00:01.395Z,89.12
2017-01-08T06:01:10.375Z,88.93
2017-01-08T06:02:19.356Z,88.93
2017-01-08T06:03:28.339Z,88.83
2017-01-08T06:04:37.322Z,88.83
2017-01-08T06:05:46.301Z,89.31
2017-01-08T06:06:55.285Z,89.12
2017-01-08T06:08:04.265Z,90.06
2017-01-08T06:09:13.253Z,89.12
2017-01-08T06:10:22.234Z,89.35
2017-01-08T06:11:31.211Z,89.44
2017-01-08T06:12:40.196Z,88.59
2017-01-08T06:13:49.176Z,88.59
2017-01-08T06:14:58.158Z,88.74
2017-01-08T06:16:07.135Z,88.4
2017-01-08T06:17:16.139Z,88.55
2017-01-08T06:18:25.123Z,88.74
2017-01-08T06:19:34.101Z,89.02
2017-01-08T06:20:43.083Z,88.78
2017-01-08T06:21:52.086Z,89.06
2017-01-08T06:23:01.068Z,89.35
2017-01-08T06:24:10.048Z,88.21
2017-01-08T06:25:19.025Z,88.31
2017-01-08T06:26:28.012Z,88.17
2017-01-08T06:27:37.000Z,88.31
2017-01-08T06:28:45.987Z,87.98
2017-01-08T06:29:54.971Z,88.17
2017-01-08T06:31:03.946Z,88.17
2017-01-08T06:32:12.930Z,88.45
2017-01-08T06:33:21.906Z,88.36
2017-01-08T06:34:30.890Z,87.88
2017-01-08T06:35:39.873Z,87.6
2017-01-08T06:36:48.855Z,87.6
2017-01-08T06:37:57.833Z,87.98
2017-01-08T06:39:06.818Z,87.6
2017-01-08T06:40:15.803Z,87.98
2017-01-08T06:41:24.780Z,87.6
2017-01-08T06:42:33.768Z,87.88
2017-01-08T06:43:42.744Z,87.6
2017-01-08T06:44:51.730Z,87.13
2017-01-08T06:46:00.710Z,87.32
2017-01-08T06:47:09.691Z,87.6
2017-01-08T06:48:18.674Z,87.41
2017-01-08T06:49:27.659Z,88.26
2017-01-08T06:50:36.639Z,87.6
2017-01-08T06:51:45.617Z,87.79
2017-01-08T06:52:54.597Z,87.7
2017-01-08T06:54:03.577Z,87.79
2017-01-08T06:55:12.559Z,87.04
2017-01-08T06:56:21.538Z,87.88
2017-01-08T06:57:30.517Z,88.26
2017-01-08T06:58:39.500Z,87.7
2017-01-08T06:59:48.487Z,87.6
2017-01-08T07:00:57.474Z,87.7
2017-01-08T07:02:06.458Z,87.41
2017-01-08T07:03:15.456Z,88.07
2017-01-08T07:04:24.433Z,87.32
2017-01-08T07:05:33.407Z,87.04
2017-01-08T07:06:42.388Z,87.6
2017-01-08T07:07:51.369Z,87.41
2017-01-08T07:09:00.346Z,87.51
2017-01-08T07:10:09.329Z,87.51
2017-01-08T07:11:18.722Z,87.6
2017-01-08T07:12:27.707Z,87.51
2017-01-08T07:13:36.688Z,87.7
2017-01-08T07:14:45.668Z,88.26
2017-01-08T07:15:54.651Z,87.6
2017-01-08T07:17:03.628Z,87.51
2017-01-08T07:18:12.604Z,87.6
2017-01-08T07:19:21.580Z,87.7
2017-01-08T07:20:30.562Z,86.56
2017-01-08T07:21:39.553Z,87.23
2017-01-08T07:22:48.535Z,87.6
2017-01-08T07:23:57.519Z,87.51
2017-01-08T07:25:06.495Z,87.6
2017-01-08T07:26:15.480Z,87.51
2017-01-08T07:27:24.459Z,87.51
2017-01-08T07:28:33.441Z,87.6
2017-01-08T07:29:42.433Z,87.88
2017-01-08T07:30:51.421Z,87.51
2017-01-08T07:32:00.424Z,87.6
2017-01-08T07:33:09.407Z,87.79
2017-01-08T07:34:18.386Z,87.6
2017-01-08T07:35:27.361Z,87.51
2017-01-08T07:36:36.341Z,87.88
2017-01-08T07:37:45.323Z,87.51
2017-01-08T07:38:54.299Z,87.79
2017-01-08T07:40:03.283Z,87.88
2017-01-08T07:41:12.265Z,87.7
2017-01-08T07:42:21.245Z,87.88
2017-01-08T07:43:30.227Z,87.6
2017-01-08T07:44:39.231Z,87.46
2017-01-08T07:45:48.210Z,87.7
2017-01-08T07:46:57.195Z,87.7
2017-01-08T07:48:06.174Z,87.55
2017-01-08T07:49:15.155Z,88.22
2017-01-08T07:50:24.136Z,88.12
2017-01-08T07:51:33.117Z,88.36
2017-01-08T07:52:42.098Z,88.26
2017-01-08T07:53:51.077Z,87.51
2017-01-08T07:55:00.058Z,87.6
2017-01-08T07:56:09.038Z,88.07
2017-01-08T07:57:18.017Z,87.7
2017-01-08T07:58:26.998Z,87.6
2017-01-08T07:59:35.979Z,87.51
2017-01-08T08:00:44.960Z,87.51
2017-01-08T08:01:53.939Z,87.7
2017-01-08T08:03:02.917Z,87.98
2017-01-08T08:04:11.924Z,87.98
2017-01-08T08:05:20.904Z,87.88
2017-01-08T08:06:29.881Z,87.98
2017-01-08T08:07:38.858Z,87.7
2017-01-08T08:08:47.847Z,87.88
2017-01-08T08:09:56.829Z,87.41
2017-01-08T08:11:05.809Z,87.41
2017-01-08T08:12:14.790Z,87.51
2017-01-08T08:13:23.772Z,87.13
2017-01-08T08:14:32.754Z,87.6
2017-01-08T08:15:41.733Z,87.51
2017-01-08T08:16:50.718Z,87.23
2017-01-08T08:17:59.707Z,87.41
2017-01-08T08:19:08.708Z,88.07
2017-01-08T08:20:17.698Z,88.36
2017-01-08T08:21:26.681Z,87.98
2017-01-08T08:22:35.664Z,88.36
2017-01-08T08:23:44.673Z,88.36
2017-01-08T08:24:53.654Z,87.88
2017-01-08T08:26:02.637Z,87.7
2017-01-08T08:27:11.619Z,87.7
2017-01-08T08:28:20.601Z,87.7
2017-01-08T08:29:29.610Z,88.07
2017-01-08T08:30:38.589Z,88.17
2017-01-08T08:31:47.570Z,87.7
2017-01-08T08:32:56.546Z,88.36
2017-01-08T08:34:05.528Z,88.07
2017-01-08T08:35:14.515Z,88.07
2017-01-08T08:36:23.493Z,87.98
2017-01-08T08:37:32.470Z,87.6
2017-01-08T08:38:41.445Z,87.6
2017-01-08T08:39:50.425Z,88.36
2017-01-08T08:40:59.408Z,88.07
2017-01-08T08:42:08.384Z,87.51
2017-01-08T08:43:17.370Z,87.7
2017-01-08T08:44:26.346Z,87.98
2017-01-08T08:45:35.455Z,88.36
2017-01-08T08:46:44.439Z,88.36
2017-01-08T08:47:53.420Z,88.26
2017-01-08T08:49:02.401Z,87.98
2017-01-08T08:50:11.381Z,87.79
2017-01-08T08:51:20.368Z,87.41
2017-01-08T08:52:29.348Z,87.51
2017-01-08T08:53:38.333Z,87.88
2017-01-08T08:54:47.316Z,87.6
2017-01-08T08:55:56.301Z,87.7
2017-01-08T08:57:05.275Z,87.32
2017-01-08T08:58:14.256Z,87.7
2017-01-08T08:59:23.247Z,88.26
2017-01-08T09:00:32.224Z,88.36
2017-01-08T09:01:41.205Z,88.17
2017-01-08T09:02:50.188Z,87.41
2017-01-08T09:03:59.172Z,88.17
2017-01-08T09:05:08.151Z,87.7
2017-01-08T09:06:17.135Z,88.07
2017-01-08T09:07:26.117Z,87.6
2017-01-08T09:08:35.397Z,87.98
2017-01-08T09:09:44.386Z,87.7
2017-01-08T09:10:53.373Z,87.23
2017-01-08T09:12:02.355Z,87.23
2017-01-08T09:13:11.336Z,87.51
2017-01-08T09:14:20.319Z,87.51
2017-01-08T09:15:29.322Z,87.32
2017-01-08T09:16:38.301Z,87.32
2017-01-08T09:17:47.278Z,87.32
2017-01-08T09:18:56.771Z,86.75
2017-01-08T09:20:05.767Z,87.04
2017-01-08T09:21:14.744Z,87.23
2017-01-08T09:22:23.727Z,86.94
2017-01-08T09:23:32.709Z,87.04
2017-01-08T09:24:41.687Z,85.61
2017-01-08T09:25:50.672Z,85.9
2017-01-08T09:26:59.667Z,86.66
2017-01-08T09:28:08.644Z,87.04
2017-01-08T09:29:17.623Z,87.04
2017-01-08T09:30:26.606Z,86.85
2017-01-08T09:31:35.597Z,86.56
2017-01-08T09:32:44.589Z,86.94
2017-01-08T09:33:53.574Z,87.13
2017-01-08T09:35:02.573Z,86.75
2017-01-08T09:36:11.555Z,86.75
2017-01-08T09:37:21.085Z,86.66
2017-01-08T09:38:31.653Z,87.13
2017-01-08T09:39:40.869Z,87.13
2017-01-08T09:40:49.922Z,87.13
2017-01-08T09:41:58.922Z,86.75
2017-01-08T09:43:08.078Z,87.13
2017-01-08T09:44:17.410Z,86.56
2017-01-08T09:45:26.559Z,86.85
2017-01-08T09:46:35.533Z,86.75
2017-01-08T09:47:44.512Z,86.75
2017-01-08T09:48:53.491Z,86.66
2017-01-08T09:50:02.478Z,87.13
2017-01-08T09:51:11.488Z,86.75
2017-01-08T09:52:20.468Z,86.66
2017-01-08T09:53:30.081Z,87.13
2017-01-08T09:54:39.713Z,87.04
2017-01-08T09:55:48.701Z,86.75
2017-01-08T09:56:57.689Z,87.04
2017-01-08T09:58:07.638Z,85.61
2017-01-08T09:59:17.120Z,86.47
2017-01-08T10:00:26.443Z,86.56
2017-01-08T10:01:35.418Z,86.09
2017-01-08T10:02:44.403Z,85.42
2017-01-08T10:03:53.380Z,86.47
2017-01-08T10:05:02.938Z,85.42
2017-01-08T10:06:12.529Z,85.71
2017-01-08T10:07:23.435Z,86.09
2017-01-08T10:08:33.142Z,86.47
2017-01-08T10:09:42.790Z,86.37
2017-01-08T10:10:52.134Z,85.61
2017-01-08T10:12:02.815Z,86.37
2017-01-08T10:13:12.561Z,86.75
2017-01-08T10:14:23.128Z,86.75
2017-01-08T10:15:33.526Z,87.13
2017-01-08T10:16:42.507Z,87.13
2017-01-08T10:17:52.136Z,87.32
2017-01-08T10:19:01.828Z,86.28
2017-01-08T10:20:10.812Z,86.18
2017-01-08T10:21:20.507Z,86.66
2017-01-08T10:22:31.311Z,86.75
2017-01-08T10:23:42.111Z,86.47
2017-01-08T10:24:51.445Z,85.24
2017-01-08T10:26:00.737Z,85.52
2017-01-08T10:27:10.415Z,85.9
2017-01-08T10:28:19.736Z,85.9
2017-01-08T10:29:29.169Z,86.09
2017-01-08T10:30:39.619Z,86.18
2017-01-08T10:31:49.688Z,86.18
2017-01-08T10:33:00.000Z,86.56
2017-01-08T10:34:10.684Z,85.33
2017-01-08T10:35:20.381Z,85.42
2017-01-08T10:36:30.687Z,85.14
2017-01-08T10:37:40.456Z,86.09
2017-01-08T10:38:49.854Z,85.71
2017-01-08T10:40:00.391Z,83.53
2017-01-08T10:41:10.491Z,84.77
2017-01-08T10:42:19.984Z,85.42
2017-01-08T10:43:30.998Z,85.9
2017-01-08T10:44:41.374Z,85.8
2017-01-08T10:45:50.632Z,86.28
2017-01-08T10:46:59.679Z,86.56
2017-01-08T10:48:10.281Z,85.8
2017-01-08T10:49:20.782Z,85.71
2017-01-08T10:50:31.187Z,84.86
2017-01-08T10:51:40.500Z,85.52
2017-01-08T10:52:50.025Z,86.18
2017-01-08T10:53:59.812Z,86.37
2017-01-08T10:55:08.795Z,85.9
2017-01-08T10:56:17.776Z,85.24
2017-01-08T10:57:26.860Z,84.48
2017-01-08T10:58:36.015Z,84.77
2017-01-08T10:59:45.391Z,85.61
2017-01-08T11:00:54.410Z,85.61
2017-01-08T11:02:04.540Z,86.47
2017-01-08T11:03:13.902Z,86.56
2017-01-08T11:04:23.707Z,86.28
2017-01-08T11:05:32.691Z,85.99
2017-01-08T11:06:41.692Z,86.37
2017-01-08T11:07:51.051Z,85.8
2017-01-08T11:09:00.726Z,85.42
2017-01-08T11:10:09.710Z,85.24
2017-01-08T11:11:19.629Z,84.1
2017-01-08T11:12:31.465Z,84.58
2017-01-08T11:13:41.840Z,84.67
2017-01-08T11:14:51.143Z,84.95
2017-01-08T11:16:01.788Z,84.39
2017-01-08T11:17:10.780Z,84.01
2017-01-08T11:18:20.149Z,84.01
2017-01-08T11:19:29.129Z,83.82
2017-01-08T11:20:38.116Z,83.91
2017-01-08T11:21:47.102Z,84.2
2017-01-08T11:22:56.550Z,84.2
2017-01-08T11:24:05.581Z,84.95
2017-01-08T11:25:14.919Z,83.91
2017-01-08T11:26:23.898Z,84.2
2017-01-08T11:27:32.875Z,84.77
2017-01-08T11:28:41.859Z,83.82
2017-01-08T11:29:50.845Z,83.63
2017-01-08T11:31:00.381Z,84.2
2017-01-08T11:32:09.369Z,84.58
2017-01-08T11:33:18.371Z,84.29
2017-01-08T11:34:27.354Z,84.48
2017-01-08T11:35:36.339Z,84.67
2017-01-08T11:36:45.324Z,85.14
2017-01-08T11:37:54.328Z,85.14
2017-01-08T11:39:03.303Z,85.14
2017-01-08T11:40:12.281Z,85.8
2017-01-08T11:41:21.259Z,86.09
2017-01-08T11:42:30.248Z,85.61
2017-01-08T11:43:39.338Z,85.05
2017-01-08T11:44:48.895Z,84.86
2017-01-08T11:45:58.507Z,85.8
2017-01-08T11:47:07.488Z,85.8
2017-01-08T11:48:16.578Z,85.8
2017-01-08T11:49:25.556Z,85.8
2017-01-08T11:50:35.955Z,86.09
2017-01-08T11:51:44.988Z,85.61
2017-01-08T11:52:53.971Z,84.77
2017-01-08T11:54:02.972Z,84.77
2017-01-08T11:55:11.951Z,85.8
2017-01-08T11:56:20.933Z,85.52
2017-01-08T11:57:29.924Z,84.42
2017-01-08T11:58:38.911Z,84.48
2017-01-08T11:59:47.921Z,84.71
2017-01-08T12:00:56.906Z,84.39
2017-01-08T12:02:05.881Z,83.91
2017-01-08T12:03:14.868Z,84.52
2017-01-08T12:04:23.854Z,84.77
2017-01-08T12:05:32.836Z,84.52
2017-01-08T12:06:42.044Z,82.25
2017-01-08T12:07:51.290Z,83.25
2017-01-08T12:09:00.419Z,82.59
2017-01-08T12:10:09.400Z,82.97
2017-01-08T12:11:18.387Z,82.4
2017-01-08T12:12:27.373Z,82.68
2017-01-08T12:13:36.353Z,82.87
2017-01-08T12:14:45.337Z,83.72
2017-01-08T12:15:54.318Z,84.2
2017-01-08T12:17:03.314Z,84.58
2017-01-08T12:18:12.294Z,82.78
2017-01-08T12:19:21.272Z,83.82
2017-01-08T12:20:30.255Z,83.53
2017-01-08T12:21:39.259Z,83.72
2017-01-08T12:22:48.246Z,83.63
2017-01-08T12:23:57.231Z,83.91
2017-01-08T12:25:06.214Z,83.53
2017-01-08T12:26:15.195Z,83.82
2017-01-08T12:27:24.173Z,81.64
2017-01-08T12:28:33.158Z,82.31
2017-01-08T12:29:42.151Z,83.63
2017-01-08T12:30:51.161Z,83.53
2017-01-08T12:32:00.152Z,83.72
2017-01-08T12:33:09.149Z,83.53
2017-01-08T12:34:18.132Z,83.91
2017-01-08T12:35:27.115Z,84.39
2017-01-08T12:36:36.099Z,84.95
2017-01-08T12:37:45.077Z,84.48
2017-01-08T12:38:54.285Z,83.91
2017-01-08T12:40:03.345Z,84.29
2017-01-08T12:41:12.382Z,84.2
2017-01-08T12:42:21.363Z,83.91
2017-01-08T12:43:30.348Z,84.39
2017-01-08T12:44:39.332Z,84.86
2017-01-08T12:45:48.311Z,84.86
2017-01-08T12:46:57.290Z,85.09
2017-01-08T12:48:06.275Z,84.9
2017-01-08T12:49:15.255Z,84.71
2017-01-08T12:50:24.234Z,85.19
2017-01-08T12:51:33.214Z,85.85
2017-01-08T12:52:42.299Z,85.38
2017-01-08T12:53:51.285Z,85
2017-01-08T12:55:00.263Z,83.95
2017-01-08T12:56:09.244Z,83.67
2017-01-08T12:57:18.223Z,83.67
2017-01-08T12:58:27.204Z,84.33
2017-01-08T12:59:36.180Z,84.9
2017-01-08T13:00:45.173Z,85.28
2017-01-08T13:01:54.157Z,85.19
2017-01-08T13:03:03.141Z,85.47
2017-01-08T13:04:13.075Z,83.86
2017-01-08T13:05:23.650Z,83.67
2017-01-08T13:06:33.614Z,82.34
2017-01-08T13:07:43.108Z,82.82
2017-01-08T13:08:52.093Z,84.05
2017-01-08T13:10:01.076Z,82.91
2017-01-08T13:11:10.059Z,83.15
2017-01-08T13:12:19.043Z,83.34
2017-01-08T13:13:28.021Z,82.82
2017-01-08T13:14:37.004Z,83.29
2017-01-08T13:15:47.149Z,84.39
2017-01-08T13:16:57.631Z,83.95
2017-01-08T13:18:08.176Z,83.76
2017-01-08T13:19:18.308Z,83.86
2017-01-08T13:20:28.427Z,83.39
2017-01-08T13:21:38.942Z,83.48
2017-01-08T13:22:48.828Z,83.58
2017-01-08T13:23:58.220Z,83.2
2017-01-08T13:25:07.907Z,83.34
2017-01-08T13:26:18.188Z,83.48
2017-01-08T13:27:28.794Z,83.06
2017-01-08T13:28:39.126Z,81.93
2017-01-08T13:29:48.521Z,82.87
2017-01-08T13:30:58.549Z,82.5
2017-01-08T13:32:08.489Z,82.87
2017-01-08T13:33:17.955Z,83.72
2017-01-08T13:34:28.002Z,83.72
2017-01-08T13:35:38.131Z,84.1
2017-01-08T13:36:48.066Z,84.48
2017-01-08T13:37:57.072Z,83.53
2017-01-08T13:39:07.539Z,83.63
2017-01-08T13:40:17.607Z,84.48
2017-01-08T13:41:27.361Z,84.95
2017-01-08T13:42:36.601Z,84.86
2017-01-08T13:43:46.377Z,85.05
2017-01-08T13:44:57.096Z,85.14
2017-01-08T13:46:07.089Z,84.39
2017-01-08T13:47:16.701Z,84.29
2017-01-08T13:48:27.479Z,84.67
2017-01-08T13:49:38.093Z,84.67
2017-01-08T13:50:49.040Z,83.63
2017-01-08T13:51:59.045Z,84.39
2017-01-08T13:53:08.485Z,84.58
2017-01-08T13:54:17.916Z,84.2
2017-01-08T13:55:30.521Z,84.29
2017-01-08T13:56:46.740Z,83.44
2017-01-08T13:57:57.145Z,83.53
2017-01-08T13:59:07.600Z,83.63
2017-01-08T14:00:18.031Z,83.63
2017-01-08T14:01:28.449Z,83.25
2017-01-08T14:02:38.599Z,83.91
2017-01-08T14:03:47.583Z,84.58
2017-01-08T14:04:56.559Z,84.48
2017-01-08T14:06:05.548Z,83.53
2017-01-08T14:07:14.530Z,83.44
2017-01-08T14:08:23.514Z,83.53
2017-01-08T14:09:32.498Z,83.63
2017-01-08T14:10:41.490Z,83.25
2017-01-08T14:11:50.478Z,83.25
2017-01-08T14:12:59.457Z,83.15
2017-01-08T14:14:08.439Z,82.68
2017-01-08T14:15:17.452Z,83.82
2017-01-08T14:16:26.431Z,83.91
2017-01-08T14:17:35.410Z,83.82
2017-01-08T14:18:44.388Z,83.63
2017-01-08T14:19:53.379Z,83.53
2017-01-08T14:21:02.367Z,84.2
2017-01-08T14:22:11.353Z,84.58
2017-01-08T14:23:20.333Z,84.58
2017-01-08T14:24:29.398Z,84.95
2017-01-08T14:25:38.380Z,83.91
2017-01-08T14:26:47.365Z,83.91
2017-01-08T14:27:56.353Z,84.1
2017-01-08T14:29:05.339Z,84.1
2017-01-08T14:30:14.322Z,84.1
2017-01-08T14:31:23.312Z,83.53
2017-01-08T14:32:32.298Z,83.53
2017-01-08T14:33:41.282Z,84.48
2017-01-08T14:34:50.259Z,84.39
2017-01-08T14:35:59.245Z,84.58
2017-01-08T14:37:08.643Z,83.72
2017-01-08T14:38:17.627Z,83.72
2017-01-08T14:39:26.605Z,83.25
2017-01-08T14:40:35.584Z,83.34
2017-01-08T14:41:44.568Z,83.72
2017-01-08T14:42:53.554Z,83.82
2017-01-08T14:44:02.563Z,83.53
2017-01-08T14:45:11.545Z,83.63
2017-01-08T14:46:20.526Z,83.63
2017-01-08T14:47:29.507Z,82.78
2017-01-08T14:48:38.485Z,82.78
2017-01-08T14:49:47.462Z,83.34
2017-01-08T14:50:56.441Z,83.72
2017-01-08T14:52:05.422Z,84.2
2017-01-08T14:53:14.409Z,83.63
2017-01-08T14:54:23.388Z,83.58
2017-01-08T14:55:32.364Z,82.63
2017-01-08T14:56:41.340Z,82.44
2017-01-08T14:57:50.321Z,82.53
2017-01-08T14:58:59.297Z,82.63